sensor_id;sensor_type;location;lat;lon;timestamp;P1;durP1;ratioP1;P2;durP2;ratioP2
72198;SDS011;60103;51.014;16.992;2023-04-25T00:01:00;4.70;;;1.20;;
72198;SDS011;60103;51.014;16.992;2023-04-25T00:03:31;3.90;;;1.00;;
72198;SDS011;60103;51.014;16.992;2023-04-25T00:06:01;3.90;;;1.20;;
72198;SDS011;60103;51.014;16.992;2023-04-25T00:08:33;3.90;;;1.20;;
72198;SDS011;60103;51.014;16.992;2023-04-25T00:11:01;3.60;;;1.00;;
72198;SDS011;60103;51.014;16.992;2023-04-25T00:13:30;4.40;;;1.30;;
72198;SDS011;60103;51.014;16.992;2023-04-25T00:16:00;3.60;;;1.00;;
72198;SDS011;60103;51.014;16.992;2023-04-25T00:18:30;4.60;;;1.30;;
72198;SDS011;60103;51.014;16.992;2023-04-25T00:21:01;4.00;;;1.10;;
72198;SDS011;60103;51.014;16.992;2023-04-25T00:23:30;6.90;;;1.10;;
72198;SDS011;60103;51.014;16.992;2023-04-25T00:25:59;6.60;;;1.40;;
72198;SDS011;60103;51.014;16.992;2023-04-25T00:28:28;3.80;;;1.10;;
72198;SDS011;60103;51.014;16.992;2023-04-25T00:30:56;4.70;;;1.30;;
72198;SDS011;60103;51.014;16.992;2023-04-25T00:33:25;3.80;;;0.90;;
72198;SDS011;60103;51.014;16.992;2023-04-25T00:35:54;5.80;;;1.40;;
72198;SDS011;60103;51.014;16.992;2023-04-25T00:38:23;4.60;;;1.40;;
72198;SDS011;60103;51.014;16.992;2023-04-25T00:40:52;3.90;;;1.00;;
72198;SDS011;60103;51.014;16.992;2023-04-25T00:43:22;4.60;;;1.30;;
72198;SDS011;60103;51.014;16.992;2023-04-25T00:45:50;4.90;;;1.60;;
72198;SDS011;60103;51.014;16.992;2023-04-25T00:48:22;5.40;;;1.40;;
72198;SDS011;60103;51.014;16.992;2023-04-25T00:50:53;5.30;;;1.60;;
72198;SDS011;60103;51.014;16.992;2023-04-25T00:53:24;4.80;;;1.30;;
72198;SDS011;60103;51.014;16.992;2023-04-25T00:55:53;8.90;;;1.90;;
72198;SDS011;60103;51.014;16.992;2023-04-25T00:58:23;5.40;;;1.70;;
72198;SDS011;60103;51.014;16.992;2023-04-25T01:00:52;5.80;;;1.70;;
72198;SDS011;60103;51.014;16.992;2023-04-25T01:03:21;5.70;;;1.80;;
72198;SDS011;60103;51.014;16.992;2023-04-25T01:05:50;6.40;;;1.90;;
72198;SDS011;60103;51.014;16.992;2023-04-25T01:08:19;6.90;;;2.00;;
72198;SDS011;60103;51.014;16.992;2023-04-25T01:10:50;8.70;;;2.20;;
72198;SDS011;60103;51.014;16.992;2023-04-25T01:13:19;6.00;;;1.80;;
72198;SDS011;60103;51.014;16.992;2023-04-25T01:15:48;6.00;;;1.90;;
72198;SDS011;60103;51.014;16.992;2023-04-25T01:18:17;6.40;;;2.10;;
72198;SDS011;60103;51.014;16.992;2023-04-25T01:20:50;6.00;;;1.70;;
72198;SDS011;60103;51.014;16.992;2023-04-25T01:23:21;6.20;;;1.90;;
72198;SDS011;60103;51.014;16.992;2023-04-25T01:25:50;6.90;;;2.00;;
72198;SDS011;60103;51.014;16.992;2023-04-25T01:28:20;8.10;;;2.40;;
72198;SDS011;60103;51.014;16.992;2023-04-25T01:30:50;6.60;;;2.10;;
72198;SDS011;60103;51.014;16.992;2023-04-25T01:33:20;7.00;;;2.20;;
72198;SDS011;60103;51.014;16.992;2023-04-25T01:35:50;6.80;;;2.10;;
72198;SDS011;60103;51.014;16.992;2023-04-25T01:38:20;6.50;;;1.90;;
72198;SDS011;60103;51.014;16.992;2023-04-25T01:40:49;7.90;;;2.30;;
72198;SDS011;60103;51.014;16.992;2023-04-25T01:43:19;6.20;;;1.70;;
72198;SDS011;60103;51.014;16.992;2023-04-25T01:45:49;6.50;;;2.10;;
72198;SDS011;60103;51.014;16.992;2023-04-25T01:48:18;6.60;;;2.10;;
72198;SDS011;60103;51.014;16.992;2023-04-25T01:50:48;6.50;;;2.20;;
72198;SDS011;60103;51.014;16.992;2023-04-25T01:53:18;7.10;;;2.50;;
72198;SDS011;60103;51.014;16.992;2023-04-25T01:55:47;7.10;;;2.70;;
72198;SDS011;60103;51.014;16.992;2023-04-25T01:58:19;7.60;;;2.00;;
72198;SDS011;60103;51.014;16.992;2023-04-25T02:01:03;8.80;;;2.40;;
72198;SDS011;60103;51.014;16.992;2023-04-25T02:03:36;7.10;;;2.10;;
72198;SDS011;60103;51.014;16.992;2023-04-25T02:06:09;7.80;;;2.50;;
72198;SDS011;60103;51.014;16.992;2023-04-25T02:08:42;7.60;;;2.70;;
72198;SDS011;60103;51.014;16.992;2023-04-25T02:11:13;7.20;;;2.50;;
72198;SDS011;60103;51.014;16.992;2023-04-25T02:13:47;7.30;;;2.60;;
72198;SDS011;60103;51.014;16.992;2023-04-25T02:16:33;7.40;;;2.20;;
72198;SDS011;60103;51.014;16.992;2023-04-25T02:19:02;8.00;;;2.60;;
72198;SDS011;60103;51.014;16.992;2023-04-25T02:21:31;8.70;;;2.80;;
72198;SDS011;60103;51.014;16.992;2023-04-25T02:24:00;8.40;;;3.10;;
72198;SDS011;60103;51.014;16.992;2023-04-25T02:26:29;7.50;;;2.80;;
72198;SDS011;60103;51.014;16.992;2023-04-25T02:28:58;8.10;;;2.50;;
72198;SDS011;60103;51.014;16.992;2023-04-25T02:31:27;8.30;;;2.90;;
72198;SDS011;60103;51.014;16.992;2023-04-25T02:33:58;8.80;;;3.40;;
72198;SDS011;60103;51.014;16.992;2023-04-25T02:36:27;7.80;;;3.20;;
72198;SDS011;60103;51.014;16.992;2023-04-25T02:38:58;7.60;;;3.00;;
72198;SDS011;60103;51.014;16.992;2023-04-25T02:41:28;8.80;;;2.90;;
72198;SDS011;60103;51.014;16.992;2023-04-25T02:43:57;8.10;;;3.00;;
72198;SDS011;60103;51.014;16.992;2023-04-25T02:46:26;8.40;;;2.80;;
72198;SDS011;60103;51.014;16.992;2023-04-25T02:49:06;7.50;;;2.70;;
72198;SDS011;60103;51.014;16.992;2023-04-25T02:51:36;8.80;;;2.90;;
72198;SDS011;60103;51.014;16.992;2023-04-25T02:54:05;8.30;;;2.70;;
72198;SDS011;60103;51.014;16.992;2023-04-25T02:56:38;8.00;;;2.50;;
72198;SDS011;60103;51.014;16.992;2023-04-25T02:59:09;9.60;;;2.90;;
72198;SDS011;60103;51.014;16.992;2023-04-25T03:01:38;7.70;;;2.70;;
72198;SDS011;60103;51.014;16.992;2023-04-25T03:04:07;7.60;;;3.10;;
72198;SDS011;60103;51.014;16.992;2023-04-25T03:06:36;8.20;;;2.90;;
72198;SDS011;60103;51.014;16.992;2023-04-25T03:09:05;7.90;;;3.00;;
72198;SDS011;60103;51.014;16.992;2023-04-25T03:11:36;6.90;;;2.30;;
72198;SDS011;60103;51.014;16.992;2023-04-25T03:14:06;7.80;;;2.90;;
72198;SDS011;60103;51.014;16.992;2023-04-25T03:16:35;8.80;;;3.00;;
72198;SDS011;60103;51.014;16.992;2023-04-25T03:19:04;10.70;;;3.00;;
72198;SDS011;60103;51.014;16.992;2023-04-25T03:21:34;8.10;;;3.20;;
72198;SDS011;60103;51.014;16.992;2023-04-25T03:24:04;8.60;;;3.10;;
72198;SDS011;60103;51.014;16.992;2023-04-25T03:26:33;9.70;;;3.50;;
72198;SDS011;60103;51.014;16.992;2023-04-25T03:29:02;9.00;;;3.30;;
72198;SDS011;60103;51.014;16.992;2023-04-25T03:31:31;8.70;;;3.00;;
72198;SDS011;60103;51.014;16.992;2023-04-25T03:34:00;8.00;;;2.70;;
72198;SDS011;60103;51.014;16.992;2023-04-25T03:36:28;8.40;;;3.10;;
72198;SDS011;60103;51.014;16.992;2023-04-25T03:38:57;9.20;;;3.40;;
72198;SDS011;60103;51.014;16.992;2023-04-25T03:41:26;11.10;;;3.20;;
72198;SDS011;60103;51.014;16.992;2023-04-25T03:44:01;8.40;;;2.40;;
72198;SDS011;60103;51.014;16.992;2023-04-25T03:46:30;8.30;;;3.00;;
72198;SDS011;60103;51.014;16.992;2023-04-25T03:48:59;10.30;;;3.60;;
72198;SDS011;60103;51.014;16.992;2023-04-25T03:51:37;8.10;;;3.30;;
72198;SDS011;60103;51.014;16.992;2023-04-25T03:54:07;9.90;;;3.90;;
72198;SDS011;60103;51.014;16.992;2023-04-25T03:56:54;10.00;;;3.50;;
72198;SDS011;60103;51.014;16.992;2023-04-25T03:59:26;9.30;;;3.50;;
72198;SDS011;60103;51.014;16.992;2023-04-25T04:01:54;8.60;;;3.20;;
72198;SDS011;60103;51.014;16.992;2023-04-25T04:04:24;8.80;;;3.20;;
72198;SDS011;60103;51.014;16.992;2023-04-25T04:06:54;11.00;;;3.80;;
72198;SDS011;60103;51.014;16.992;2023-04-25T04:09:29;9.90;;;3.70;;
72198;SDS011;60103;51.014;16.992;2023-04-25T04:12:00;9.00;;;3.60;;
72198;SDS011;60103;51.014;16.992;2023-04-25T04:14:31;9.90;;;3.50;;
72198;SDS011;60103;51.014;16.992;2023-04-25T04:17:00;10.30;;;3.60;;
72198;SDS011;60103;51.014;16.992;2023-04-25T04:19:29;9.10;;;3.90;;
72198;SDS011;60103;51.014;16.992;2023-04-25T04:22:19;9.10;;;3.30;;
72198;SDS011;60103;51.014;16.992;2023-04-25T04:24:48;10.60;;;3.50;;
72198;SDS011;60103;51.014;16.992;2023-04-25T04:27:38;8.80;;;3.00;;
72198;SDS011;60103;51.014;16.992;2023-04-25T04:30:32;8.80;;;3.40;;
72198;SDS011;60103;51.014;16.992;2023-04-25T04:33:07;10.00;;;3.90;;
72198;SDS011;60103;51.014;16.992;2023-04-25T04:35:37;8.80;;;3.10;;
72198;SDS011;60103;51.014;16.992;2023-04-25T04:38:06;8.70;;;3.20;;
72198;SDS011;60103;51.014;16.992;2023-04-25T04:40:36;9.10;;;3.30;;
72198;SDS011;60103;51.014;16.992;2023-04-25T04:43:26;11.70;;;4.30;;
72198;SDS011;60103;51.014;16.992;2023-04-25T04:46:27;9.50;;;3.70;;
72198;SDS011;60103;51.014;16.992;2023-04-25T04:49:18;10.30;;;3.90;;
72198;SDS011;60103;51.014;16.992;2023-04-25T04:51:57;8.50;;;3.40;;
72198;SDS011;60103;51.014;16.992;2023-04-25T04:54:51;9.90;;;3.60;;
72198;SDS011;60103;51.014;16.992;2023-04-25T04:57:42;9.30;;;3.50;;
72198;SDS011;60103;51.014;16.992;2023-04-25T05:00:29;10.20;;;3.90;;
72198;SDS011;60103;51.014;16.992;2023-04-25T05:03:22;9.00;;;3.40;;
72198;SDS011;60103;51.014;16.992;2023-04-25T05:06:05;12.50;;;4.40;;
72198;SDS011;60103;51.014;16.992;2023-04-25T05:09:07;9.10;;;4.00;;
72198;SDS011;60103;51.014;16.992;2023-04-25T05:11:59;11.00;;;3.80;;
72198;SDS011;60103;51.014;16.992;2023-04-25T05:14:39;9.20;;;3.30;;
72198;SDS011;60103;51.014;16.992;2023-04-25T05:17:34;9.30;;;3.80;;
72198;SDS011;60103;51.014;16.992;2023-04-25T05:20:21;9.80;;;3.50;;
72198;SDS011;60103;51.014;16.992;2023-04-25T05:23:20;9.00;;;3.40;;
72198;SDS011;60103;51.014;16.992;2023-04-25T05:26:12;8.50;;;2.90;;
72198;SDS011;60103;51.014;16.992;2023-04-25T05:29:00;9.60;;;3.50;;
72198;SDS011;60103;51.014;16.992;2023-04-25T05:31:54;9.10;;;3.30;;
72198;SDS011;60103;51.014;16.992;2023-04-25T05:34:24;8.50;;;3.50;;
72198;SDS011;60103;51.014;16.992;2023-04-25T05:37:02;8.00;;;2.90;;
72198;SDS011;60103;51.014;16.992;2023-04-25T05:39:33;10.10;;;3.80;;
72198;SDS011;60103;51.014;16.992;2023-04-25T05:42:14;7.50;;;3.00;;
72198;SDS011;60103;51.014;16.992;2023-04-25T05:44:52;10.00;;;3.80;;
72198;SDS011;60103;51.014;16.992;2023-04-25T05:47:45;9.70;;;4.50;;
72198;SDS011;60103;51.014;16.992;2023-04-25T05:50:21;10.00;;;3.20;;
72198;SDS011;60103;51.014;16.992;2023-04-25T05:53:02;9.20;;;3.20;;
72198;SDS011;60103;51.014;16.992;2023-04-25T05:55:43;9.30;;;3.40;;
72198;SDS011;60103;51.014;16.992;2023-04-25T05:58:23;9.30;;;3.30;;
72198;SDS011;60103;51.014;16.992;2023-04-25T06:00:54;7.50;;;2.90;;
72198;SDS011;60103;51.014;16.992;2023-04-25T06:03:23;9.10;;;3.90;;
72198;SDS011;60103;51.014;16.992;2023-04-25T06:05:53;8.60;;;2.90;;
72198;SDS011;60103;51.014;16.992;2023-04-25T06:08:21;10.10;;;4.00;;
72198;SDS011;60103;51.014;16.992;2023-04-25T06:10:50;8.10;;;2.90;;
72198;SDS011;60103;51.014;16.992;2023-04-25T06:13:19;9.80;;;3.40;;
72198;SDS011;60103;51.014;16.992;2023-04-25T06:15:48;11.80;;;3.70;;
72198;SDS011;60103;51.014;16.992;2023-04-25T06:18:17;7.30;;;2.50;;
72198;SDS011;60103;51.014;16.992;2023-04-25T06:20:46;9.90;;;3.80;;
72198;SDS011;60103;51.014;16.992;2023-04-25T06:23:17;9.60;;;3.10;;
72198;SDS011;60103;51.014;16.992;2023-04-25T06:25:51;8.90;;;2.80;;
72198;SDS011;60103;51.014;16.992;2023-04-25T06:28:20;8.80;;;3.20;;
72198;SDS011;60103;51.014;16.992;2023-04-25T06:30:50;7.50;;;2.60;;
72198;SDS011;60103;51.014;16.992;2023-04-25T06:33:19;8.20;;;2.60;;
72198;SDS011;60103;51.014;16.992;2023-04-25T06:35:49;8.20;;;3.00;;
72198;SDS011;60103;51.014;16.992;2023-04-25T06:38:22;10.00;;;3.30;;
72198;SDS011;60103;51.014;16.992;2023-04-25T06:40:52;9.90;;;3.10;;
72198;SDS011;60103;51.014;16.992;2023-04-25T06:43:22;7.40;;;2.70;;
72198;SDS011;60103;51.014;16.992;2023-04-25T06:46:06;8.00;;;2.90;;
72198;SDS011;60103;51.014;16.992;2023-04-25T06:48:40;7.70;;;2.70;;
72198;SDS011;60103;51.014;16.992;2023-04-25T06:51:08;10.00;;;3.10;;
72198;SDS011;60103;51.014;16.992;2023-04-25T06:53:37;8.00;;;3.10;;
72198;SDS011;60103;51.014;16.992;2023-04-25T06:56:08;9.20;;;2.80;;
72198;SDS011;60103;51.014;16.992;2023-04-25T06:59:01;9.60;;;3.50;;
72198;SDS011;60103;51.014;16.992;2023-04-25T07:01:41;9.30;;;2.60;;
72198;SDS011;60103;51.014;16.992;2023-04-25T07:04:14;7.90;;;2.30;;
72198;SDS011;60103;51.014;16.992;2023-04-25T07:06:49;8.40;;;2.50;;
72198;SDS011;60103;51.014;16.992;2023-04-25T07:09:22;7.30;;;2.30;;
72198;SDS011;60103;51.014;16.992;2023-04-25T07:11:52;8.30;;;2.40;;
72198;SDS011;60103;51.014;16.992;2023-04-25T07:14:21;12.80;;;2.60;;
72198;SDS011;60103;51.014;16.992;2023-04-25T07:16:50;9.90;;;2.50;;
72198;SDS011;60103;51.014;16.992;2023-04-25T07:19:19;8.50;;;2.70;;
72198;SDS011;60103;51.014;16.992;2023-04-25T07:21:49;9.80;;;2.30;;
72198;SDS011;60103;51.014;16.992;2023-04-25T07:24:21;9.50;;;2.50;;
72198;SDS011;60103;51.014;16.992;2023-04-25T07:26:50;9.70;;;2.60;;
72198;SDS011;60103;51.014;16.992;2023-04-25T07:29:28;8.30;;;2.60;;
72198;SDS011;60103;51.014;16.992;2023-04-25T07:32:00;7.80;;;2.30;;
72198;SDS011;60103;51.014;16.992;2023-04-25T07:34:29;8.10;;;2.40;;
72198;SDS011;60103;51.014;16.992;2023-04-25T07:36:59;9.10;;;2.20;;
72198;SDS011;60103;51.014;16.992;2023-04-25T07:39:31;9.40;;;2.60;;
72198;SDS011;60103;51.014;16.992;2023-04-25T07:42:01;7.70;;;2.30;;
72198;SDS011;60103;51.014;16.992;2023-04-25T07:44:31;9.30;;;2.80;;
72198;SDS011;60103;51.014;16.992;2023-04-25T07:47:01;9.00;;;2.60;;
72198;SDS011;60103;51.014;16.992;2023-04-25T07:49:31;8.50;;;2.90;;
72198;SDS011;60103;51.014;16.992;2023-04-25T07:52:00;11.20;;;3.60;;
72198;SDS011;60103;51.014;16.992;2023-04-25T07:54:30;8.50;;;3.20;;
72198;SDS011;60103;51.014;16.992;2023-04-25T07:57:02;8.70;;;3.30;;
72198;SDS011;60103;51.014;16.992;2023-04-25T07:59:31;8.20;;;2.70;;
72198;SDS011;60103;51.014;16.992;2023-04-25T08:02:01;8.60;;;2.70;;
72198;SDS011;60103;51.014;16.992;2023-04-25T08:04:31;9.00;;;3.50;;
72198;SDS011;60103;51.014;16.992;2023-04-25T08:07:04;9.80;;;3.30;;
72198;SDS011;60103;51.014;16.992;2023-04-25T08:09:55;9.00;;;3.30;;
72198;SDS011;60103;51.014;16.992;2023-04-25T08:12:28;8.80;;;3.60;;
72198;SDS011;60103;51.014;16.992;2023-04-25T08:14:57;9.30;;;3.80;;
72198;SDS011;60103;51.014;16.992;2023-04-25T08:17:29;11.90;;;3.80;;
72198;SDS011;60103;51.014;16.992;2023-04-25T08:19:59;10.10;;;4.20;;
72198;SDS011;60103;51.014;16.992;2023-04-25T08:22:29;10.80;;;4.10;;
72198;SDS011;60103;51.014;16.992;2023-04-25T08:25:13;9.30;;;3.60;;
72198;SDS011;60103;51.014;16.992;2023-04-25T08:27:43;10.70;;;4.70;;
72198;SDS011;60103;51.014;16.992;2023-04-25T08:30:12;10.30;;;5.00;;
72198;SDS011;60103;51.014;16.992;2023-04-25T08:32:42;13.00;;;4.80;;
72198;SDS011;60103;51.014;16.992;2023-04-25T08:35:29;10.60;;;4.50;;
72198;SDS011;60103;51.014;16.992;2023-04-25T08:37:58;13.40;;;4.70;;
72198;SDS011;60103;51.014;16.992;2023-04-25T08:40:28;11.20;;;4.00;;
72198;SDS011;60103;51.014;16.992;2023-04-25T08:43:08;9.70;;;3.80;;
72198;SDS011;60103;51.014;16.992;2023-04-25T08:45:40;9.50;;;3.70;;
72198;SDS011;60103;51.014;16.992;2023-04-25T08:48:15;12.30;;;4.40;;
72198;SDS011;60103;51.014;16.992;2023-04-25T08:50:49;10.20;;;4.60;;
72198;SDS011;60103;51.014;16.992;2023-04-25T08:53:26;11.70;;;4.40;;
72198;SDS011;60103;51.014;16.992;2023-04-25T08:55:58;12.00;;;4.00;;
72198;SDS011;60103;51.014;16.992;2023-04-25T08:58:28;9.40;;;3.60;;
72198;SDS011;60103;51.014;16.992;2023-04-25T09:00:57;11.70;;;5.00;;
72198;SDS011;60103;51.014;16.992;2023-04-25T09:03:28;10.00;;;3.80;;
72198;SDS011;60103;51.014;16.992;2023-04-25T09:05:57;9.70;;;3.60;;
72198;SDS011;60103;51.014;16.992;2023-04-25T09:08:26;10.00;;;3.60;;
72198;SDS011;60103;51.014;16.992;2023-04-25T09:10:56;8.40;;;3.50;;
72198;SDS011;60103;51.014;16.992;2023-04-25T09:13:26;8.80;;;3.90;;
72198;SDS011;60103;51.014;16.992;2023-04-25T09:16:19;10.10;;;3.70;;
72198;SDS011;60103;51.014;16.992;2023-04-25T09:19:33;7.70;;;3.10;;
72198;SDS011;60103;51.014;16.992;2023-04-25T09:22:29;10.30;;;3.50;;
72198;SDS011;60103;51.014;16.992;2023-04-25T09:24:58;8.80;;;3.50;;
72198;SDS011;60103;51.014;16.992;2023-04-25T09:27:32;7.40;;;2.80;;
72198;SDS011;60103;51.014;16.992;2023-04-25T09:30:12;8.60;;;3.70;;
72198;SDS011;60103;51.014;16.992;2023-04-25T09:33:04;10.40;;;3.60;;
72198;SDS011;60103;51.014;16.992;2023-04-25T09:35:38;8.50;;;3.10;;
72198;SDS011;60103;51.014;16.992;2023-04-25T09:38:11;9.80;;;3.90;;
72198;SDS011;60103;51.014;16.992;2023-04-25T09:40:58;8.80;;;3.20;;
72198;SDS011;60103;51.014;16.992;2023-04-25T09:43:40;9.60;;;3.50;;
72198;SDS011;60103;51.014;16.992;2023-04-25T09:46:14;8.10;;;2.80;;
72198;SDS011;60103;51.014;16.992;2023-04-25T09:48:50;10.90;;;2.90;;
72198;SDS011;60103;51.014;16.992;2023-04-25T09:51:25;9.10;;;3.10;;
72198;SDS011;60103;51.014;16.992;2023-04-25T09:53:57;7.70;;;2.90;;
72198;SDS011;60103;51.014;16.992;2023-04-25T09:56:36;9.30;;;3.60;;
72198;SDS011;60103;51.014;16.992;2023-04-25T09:59:08;12.40;;;3.10;;
72198;SDS011;60103;51.014;16.992;2023-04-25T10:01:39;9.50;;;3.70;;
72198;SDS011;60103;51.014;16.992;2023-04-25T10:04:13;8.50;;;3.10;;
72198;SDS011;60103;51.014;16.992;2023-04-25T10:07:08;9.30;;;3.50;;
72198;SDS011;60103;51.014;16.992;2023-04-25T10:09:37;8.40;;;3.40;;
72198;SDS011;60103;51.014;16.992;2023-04-25T10:12:08;9.30;;;3.60;;
72198;SDS011;60103;51.014;16.992;2023-04-25T10:14:37;8.80;;;3.20;;
72198;SDS011;60103;51.014;16.992;2023-04-25T10:17:07;8.40;;;3.00;;
72198;SDS011;60103;51.014;16.992;2023-04-25T10:19:39;7.20;;;2.70;;
72198;SDS011;60103;51.014;16.992;2023-04-25T10:22:18;9.90;;;3.40;;
72198;SDS011;60103;51.014;16.992;2023-04-25T10:24:51;8.90;;;3.50;;
72198;SDS011;60103;51.014;16.992;2023-04-25T10:27:21;9.10;;;3.00;;
72198;SDS011;60103;51.014;16.992;2023-04-25T10:30:00;8.90;;;3.60;;
72198;SDS011;60103;51.014;16.992;2023-04-25T10:32:32;10.50;;;4.60;;
72198;SDS011;60103;51.014;16.992;2023-04-25T10:35:45;8.10;;;3.20;;
72198;SDS011;60103;51.014;16.992;2023-04-25T10:38:05;8.50;;;3.10;;
72198;SDS011;60103;51.014;16.992;2023-04-25T10:40:38;6.50;;;2.30;;
72198;SDS011;60103;51.014;16.992;2023-04-25T10:45:59;6.60;;;2.10;;
72198;SDS011;60103;51.014;16.992;2023-04-25T10:48:29;6.40;;;2.30;;
72198;SDS011;60103;51.014;16.992;2023-04-25T10:51:08;7.90;;;3.00;;
72198;SDS011;60103;51.014;16.992;2023-04-25T10:53:41;8.90;;;3.20;;
72198;SDS011;60103;51.014;16.992;2023-04-25T10:56:11;9.50;;;3.80;;
72198;SDS011;60103;51.014;16.992;2023-04-25T10:59:09;8.50;;;3.30;;
72198;SDS011;60103;51.014;16.992;2023-04-25T11:01:40;9.00;;;3.10;;
72198;SDS011;60103;51.014;16.992;2023-04-25T11:04:20;9.20;;;3.40;;
72198;SDS011;60103;51.014;16.992;2023-04-25T11:07:13;7.50;;;3.00;;
72198;SDS011;60103;51.014;16.992;2023-04-25T11:09:52;9.60;;;2.90;;
72198;SDS011;60103;51.014;16.992;2023-04-25T11:12:22;7.30;;;2.30;;
72198;SDS011;60103;51.014;16.992;2023-04-25T11:15:00;7.80;;;2.80;;
72198;SDS011;60103;51.014;16.992;2023-04-25T11:17:32;8.60;;;2.30;;
72198;SDS011;60103;51.014;16.992;2023-04-25T11:20:02;5.80;;;1.90;;
72198;SDS011;60103;51.014;16.992;2023-04-25T11:22:35;9.20;;;2.70;;
72198;SDS011;60103;51.014;16.992;2023-04-25T11:25:05;8.30;;;2.50;;
72198;SDS011;60103;51.014;16.992;2023-04-25T11:27:39;8.00;;;2.10;;
72198;SDS011;60103;51.014;16.992;2023-04-25T11:30:19;6.60;;;1.70;;
72198;SDS011;60103;51.014;16.992;2023-04-25T11:32:48;6.70;;;2.00;;
72198;SDS011;60103;51.014;16.992;2023-04-25T11:35:18;6.70;;;2.30;;
72198;SDS011;60103;51.014;16.992;2023-04-25T11:37:49;7.00;;;2.10;;
72198;SDS011;60103;51.014;16.992;2023-04-25T11:40:18;8.70;;;2.30;;
72198;SDS011;60103;51.014;16.992;2023-04-25T11:42:47;6.40;;;2.20;;
72198;SDS011;60103;51.014;16.992;2023-04-25T11:45:17;7.60;;;2.00;;
72198;SDS011;60103;51.014;16.992;2023-04-25T11:47:47;6.80;;;1.90;;
72198;SDS011;60103;51.014;16.992;2023-04-25T11:50:16;6.30;;;1.60;;
72198;SDS011;60103;51.014;16.992;2023-04-25T11:52:46;6.00;;;1.60;;
72198;SDS011;60103;51.014;16.992;2023-04-25T11:55:17;5.20;;;1.60;;
72198;SDS011;60103;51.014;16.992;2023-04-25T11:57:48;6.70;;;1.70;;
72198;SDS011;60103;51.014;16.992;2023-04-25T12:00:21;6.60;;;1.70;;
72198;SDS011;60103;51.014;16.992;2023-04-25T12:02:54;7.00;;;1.90;;
72198;SDS011;60103;51.014;16.992;2023-04-25T12:05:25;5.80;;;1.80;;
72198;SDS011;60103;51.014;16.992;2023-04-25T12:08:10;5.30;;;1.90;;
72198;SDS011;60103;51.014;16.992;2023-04-25T12:10:43;7.00;;;1.70;;
72198;SDS011;60103;51.014;16.992;2023-04-25T12:15:56;5.20;;;1.30;;
72198;SDS011;60103;51.014;16.992;2023-04-25T12:18:25;5.80;;;1.40;;
72198;SDS011;60103;51.014;16.992;2023-04-25T12:20:57;5.30;;;1.30;;
72198;SDS011;60103;51.014;16.992;2023-04-25T12:23:27;5.80;;;1.50;;
72198;SDS011;60103;51.014;16.992;2023-04-25T12:25:56;6.70;;;1.80;;
72198;SDS011;60103;51.014;16.992;2023-04-25T12:28:26;4.40;;;1.30;;
72198;SDS011;60103;51.014;16.992;2023-04-25T12:31:00;5.60;;;1.60;;
72198;SDS011;60103;51.014;16.992;2023-04-25T12:33:34;6.20;;;1.70;;
72198;SDS011;60103;51.014;16.992;2023-04-25T12:36:05;7.80;;;1.90;;
72198;SDS011;60103;51.014;16.992;2023-04-25T12:38:40;6.60;;;2.00;;
72198;SDS011;60103;51.014;16.992;2023-04-25T12:41:10;6.10;;;1.80;;
72198;SDS011;60103;51.014;16.992;2023-04-25T12:43:40;6.80;;;2.00;;
72198;SDS011;60103;51.014;16.992;2023-04-25T12:46:08;6.30;;;1.70;;
72198;SDS011;60103;51.014;16.992;2023-04-25T12:48:37;5.40;;;1.70;;
72198;SDS011;60103;51.014;16.992;2023-04-25T12:51:06;6.80;;;1.80;;
72198;SDS011;60103;51.014;16.992;2023-04-25T12:53:35;5.70;;;1.60;;
72198;SDS011;60103;51.014;16.992;2023-04-25T12:56:06;5.30;;;1.70;;
72198;SDS011;60103;51.014;16.992;2023-04-25T12:58:35;5.50;;;1.70;;
72198;SDS011;60103;51.014;16.992;2023-04-25T13:01:05;6.00;;;1.70;;
72198;SDS011;60103;51.014;16.992;2023-04-25T13:03:34;6.20;;;1.70;;
72198;SDS011;60103;51.014;16.992;2023-04-25T13:06:03;6.70;;;1.90;;
72198;SDS011;60103;51.014;16.992;2023-04-25T13:08:32;5.40;;;1.40;;
72198;SDS011;60103;51.014;16.992;2023-04-25T13:11:02;4.70;;;1.40;;
72198;SDS011;60103;51.014;16.992;2023-04-25T13:13:31;7.50;;;1.80;;
72198;SDS011;60103;51.014;16.992;2023-04-25T13:16:05;6.90;;;1.80;;
72198;SDS011;60103;51.014;16.992;2023-04-25T13:18:34;5.50;;;1.60;;
72198;SDS011;60103;51.014;16.992;2023-04-25T13:21:04;5.70;;;1.40;;
72198;SDS011;60103;51.014;16.992;2023-04-25T13:23:33;5.70;;;1.40;;
72198;SDS011;60103;51.014;16.992;2023-04-25T13:26:02;5.70;;;1.80;;
72198;SDS011;60103;51.014;16.992;2023-04-25T13:28:32;7.10;;;2.10;;
72198;SDS011;60103;51.014;16.992;2023-04-25T13:31:01;6.90;;;2.00;;
72198;SDS011;60103;51.014;16.992;2023-04-25T13:33:29;6.60;;;2.20;;
72198;SDS011;60103;51.014;16.992;2023-04-25T13:36:00;7.10;;;1.80;;
72198;SDS011;60103;51.014;16.992;2023-04-25T13:38:29;6.50;;;2.10;;
72198;SDS011;60103;51.014;16.992;2023-04-25T13:40:58;6.20;;;1.90;;
72198;SDS011;60103;51.014;16.992;2023-04-25T13:43:27;6.00;;;1.90;;
72198;SDS011;60103;51.014;16.992;2023-04-25T13:45:57;6.30;;;1.60;;
72198;SDS011;60103;51.014;16.992;2023-04-25T13:48:26;5.50;;;1.60;;
72198;SDS011;60103;51.014;16.992;2023-04-25T13:50:55;5.10;;;1.50;;
72198;SDS011;60103;51.014;16.992;2023-04-25T13:53:25;5.00;;;1.40;;
72198;SDS011;60103;51.014;16.992;2023-04-25T13:55:55;5.90;;;1.80;;
72198;SDS011;60103;51.014;16.992;2023-04-25T13:58:24;5.60;;;1.60;;
72198;SDS011;60103;51.014;16.992;2023-04-25T14:00:56;6.90;;;1.60;;
72198;SDS011;60103;51.014;16.992;2023-04-25T14:03:26;5.20;;;1.40;;
72198;SDS011;60103;51.014;16.992;2023-04-25T14:05:55;5.90;;;1.80;;
72198;SDS011;60103;51.014;16.992;2023-04-25T14:08:24;5.90;;;1.50;;
72198;SDS011;60103;51.014;16.992;2023-04-25T14:10:54;5.70;;;1.60;;
72198;SDS011;60103;51.014;16.992;2023-04-25T14:13:24;5.50;;;1.90;;
72198;SDS011;60103;51.014;16.992;2023-04-25T14:15:53;6.30;;;1.70;;
72198;SDS011;60103;51.014;16.992;2023-04-25T14:18:23;7.10;;;1.80;;
72198;SDS011;60103;51.014;16.992;2023-04-25T14:20:52;5.80;;;1.80;;
72198;SDS011;60103;51.014;16.992;2023-04-25T14:23:21;6.00;;;1.80;;
72198;SDS011;60103;51.014;16.992;2023-04-25T14:25:50;7.00;;;1.90;;
72198;SDS011;60103;51.014;16.992;2023-04-25T14:28:19;6.40;;;1.70;;
72198;SDS011;60103;51.014;16.992;2023-04-25T14:30:48;7.10;;;1.50;;
72198;SDS011;60103;51.014;16.992;2023-04-25T14:33:17;4.50;;;1.40;;
72198;SDS011;60103;51.014;16.992;2023-04-25T14:35:46;6.50;;;2.00;;
72198;SDS011;60103;51.014;16.992;2023-04-25T14:38:17;6.20;;;1.70;;
72198;SDS011;60103;51.014;16.992;2023-04-25T14:40:52;5.70;;;1.50;;
72198;SDS011;60103;51.014;16.992;2023-04-25T14:43:23;6.00;;;1.50;;
72198;SDS011;60103;51.014;16.992;2023-04-25T14:45:53;5.40;;;1.50;;
72198;SDS011;60103;51.014;16.992;2023-04-25T14:48:29;7.20;;;1.50;;
72198;SDS011;60103;51.014;16.992;2023-04-25T14:51:06;5.50;;;1.70;;
72198;SDS011;60103;51.014;16.992;2023-04-25T14:53:37;5.90;;;1.70;;
72198;SDS011;60103;51.014;16.992;2023-04-25T14:56:07;5.70;;;1.60;;
72198;SDS011;60103;51.014;16.992;2023-04-25T14:58:39;6.30;;;1.30;;
72198;SDS011;60103;51.014;16.992;2023-04-25T15:01:09;5.40;;;1.30;;
72198;SDS011;60103;51.014;16.992;2023-04-25T15:03:39;4.90;;;1.40;;
72198;SDS011;60103;51.014;16.992;2023-04-25T15:06:11;6.40;;;1.40;;
72198;SDS011;60103;51.014;16.992;2023-04-25T15:08:40;6.10;;;1.30;;
72198;SDS011;60103;51.014;16.992;2023-04-25T15:11:13;6.10;;;1.60;;
72198;SDS011;60103;51.014;16.992;2023-04-25T15:13:47;7.70;;;1.40;;